Time;durP1;ratioP1;P1;durP2;ratioP2;P2;SDS_P1;SDS_P2;PMS_P1;PMS_P2;Temp;Humidity;BMP_temperature;BMP_pressure;BME280_temperature;BME280_humidity;BME280_pressure;Samples;Min_cycle;Max_cycle;Signal;HPM_P1;HPM_P2
2022/09/19 00:01:23;;;;;;;5.55;2.42;;;;;;;13.14;100.00;99852.97;5081482;28;20107;-84
2022/09/19 00:03:59;;;;;;;4.72;2.60;;;;;;;13.19;100.00;99858.50;5079404;28;20131;-84
2022/09/19 00:06:27;;;;;;;5.55;2.80;;;;;;;13.08;100.00;99853.72;5081151;28;20028;-83
2022/09/19 00:08:54;;;;;;;3.75;2.90;;;;;;;12.99;100.00;99851.25;5079969;28;20058;-83
2022/09/19 00:11:21;;;;;;;8.95;2.35;;;;;;;13.06;100.00;99855.75;5081064;28;20032;-83
2022/09/19 00:13:49;;;;;;;7.68;2.60;;;;;;;13.06;100.00;99845.19;5079129;28;20032;-85
2022/09/19 00:16:30;;;;;;;4.07;2.30;;;;;;;13.19;100.00;99855.03;5080174;28;20120;-84
2022/09/19 00:18:58;;;;;;;5.38;2.83;;;;;;;13.02;100.00;99836.06;5059040;28;20490;-83
2022/09/19 00:21:31;;;;;;;4.20;2.70;;;;;;;13.03;100.00;99830.56;5080974;28;20084;-84
2022/09/19 00:26:41;;;;;;;4.82;2.88;;;;;;;13.07;100.00;99845.03;5082764;28;20059;-84
2022/09/19 00:29:08;;;;;;;5.95;2.92;;;;;;;13.09;100.00;99842.19;5079564;28;20033;-83
2022/09/19 00:31:34;;;;;;;3.75;2.67;;;;;;;12.92;100.00;99818.75;5084189;28;20059;-83
2022/09/19 00:34:00;;;;;;;5.60;3.00;;;;;;;12.99;100.00;99835.44;5078348;28;20056;-84
2022/09/19 00:36:27;;;;;;;3.97;2.50;;;;;;;13.01;100.00;99853.69;5078821;28;20060;-85
2022/09/19 00:38:52;;;;;;;4.63;2.75;;;;;;;12.90;100.00;99835.75;5080635;28;20116;-84
2022/09/19 00:41:21;;;;;;;8.00;2.60;;;;;;;13.00;100.00;99858.16;5082061;28;20115;-84
2022/09/19 00:43:54;;;;;;;3.10;2.60;;;;;;;12.97;100.00;99853.25;5078319;28;20063;-83
2022/09/19 00:46:21;;;;;;;3.87;2.40;;;;;;;12.90;100.00;99849.72;5078680;28;20482;-84
2022/09/19 00:48:52;;;;;;;5.18;2.47;;;;;;;12.90;100.00;99841.81;5083426;28;20292;-84
2022/09/19 00:51:31;;;;;;;3.42;2.28;;;;;;;12.91;100.00;99843.47;5078943;28;20120;-85
2022/09/19 00:54:02;;;;;;;4.03;2.10;;;;;;;12.79;100.00;99829.97;5084437;28;20030;-85
2022/09/19 00:56:29;;;;;;;3.92;2.35;;;;;;;12.91;100.00;99854.00;5078816;28;20029;-85
2022/09/19 00:58:56;;;;;;;4.38;2.03;;;;;;;12.80;100.00;99839.50;5083564;28;20031;-85
2022/09/19 01:01:23;;;;;;;3.47;2.45;;;;;;;12.79;100.00;99839.72;5084722;28;20586;-85
2022/09/19 01:03:48;;;;;;;4.97;2.17;;;;;;;12.77;100.00;99837.25;5086366;28;20111;-83
2022/09/19 01:06:40;;;;;;;3.83;2.22;;;;;;;12.88;100.00;99862.28;5084765;28;20497;-83
2022/09/19 01:09:19;;;;;;;3.17;2.58;;;;;;;12.84;100.00;99856.56;5080813;28;20052;-84
2022/09/19 01:11:54;;;;;;;3.17;2.60;;;;;;;12.86;100.00;99851.94;5085329;28;20090;-85
2022/09/19 01:14:39;;;;;;;3.58;2.72;;;;;;;12.84;100.00;99851.31;5079860;28;20024;-86
2022/09/19 01:17:46;;;;;;;7.38;3.03;;;;;;;12.77;100.00;99832.00;5081304;28;20099;-84
2022/09/19 01:20:17;;;;;;;4.38;3.00;;;;;;;12.89;100.00;99855.22;5089128;28;20024;-84
2022/09/19 01:23:02;;;;;;;3.90;3.20;;;;;;;12.90;100.00;99851.56;5084119;28;20034;-85
2022/09/19 01:25:46;;;;;;;3.67;3.25;;;;;;;12.80;100.00;99844.00;5065556;28;20048;-84
2022/09/19 01:28:21;;;;;;;4.57;3.22;;;;;;;12.93;100.00;99859.88;5085229;28;20029;-84
2022/09/19 01:31:17;;;;;;;5.68;2.80;;;;;;;12.95;100.00;99857.06;5083892;28;20032;-83
2022/09/19 01:34:05;;;;;;;3.28;2.78;;;;;;;12.93;100.00;99857.25;5084167;28;20040;-84
2022/09/19 01:37:03;;;;;;;7.25;3.10;;;;;;;12.90;100.00;99859.47;5083099;28;20027;-84
2022/09/19 01:39:32;;;;;;;4.55;2.70;;;;;;;12.79;100.00;99845.00;5071005;28;20033;-85
2022/09/19 01:41:58;;;;;;;3.78;2.60;;;;;;;12.83;100.00;99854.13;5080260;28;20066;-84
2022/09/19 01:44:26;;;;;;;3.83;2.60;;;;;;;12.78;100.00;99843.38;5082126;28;20033;-86
2022/09/19 01:46:57;;;;;;;2.65;2.38;;;;;;;12.80;100.00;99842.16;5085955;28;20036;-84
2022/09/19 01:49:38;;;;;;;3.88;2.40;;;;;;;12.82;100.00;99855.16;5083844;28;20020;-84
2022/09/19 01:52:18;;;;;;;6.20;2.50;;;;;;;12.80;100.00;99857.97;5084193;28;20025;-84
2022/09/19 01:55:02;;;;;;;4.78;2.05;;;;;;;12.71;100.00;99844.09;5080354;28;20398;-84
2022/09/19 01:57:37;;;;;;;2.10;1.90;;;;;;;12.68;100.00;99833.94;5084224;28;20412;-84
2022/09/19 02:00:14;;;;;;;5.72;2.30;;;;;;;12.78;100.00;99854.69;5085552;28;20059;-84
2022/09/19 02:03:04;;;;;;;2.95;2.45;;;;;;;12.60;100.00;99826.19;5084209;28;20111;-84
2022/09/19 02:05:50;;;;;;;3.63;2.40;;;;;;;12.71;100.00;99853.84;5083123;28;20032;-83
2022/09/19 02:08:32;;;;;;;4.18;2.40;;;;;;;12.71;100.00;99848.56;5086094;28;20038;-85
2022/09/19 02:11:03;;;;;;;4.38;2.25;;;;;;;12.66;100.00;99840.38;5083692;28;20024;-84
2022/09/19 02:13:33;;;;;;;2.35;2.15;;;;;;;12.71;100.00;99852.00;5080854;28;20024;-82
2022/09/19 02:16:11;;;;;;;3.13;2.20;;;;;;;12.71;100.00;99854.63;5087699;28;20036;-85
2022/09/19 02:18:49;;;;;;;3.95;2.22;;;;;;;12.68;100.00;99854.22;5069168;28;20462;-84
2022/09/19 02:21:21;;;;;;;4.53;2.40;;;;;;;12.61;100.00;99838.34;5080815;28;20107;-83
2022/09/19 02:23:50;;;;;;;5.30;2.17;;;;;;;12.67;100.00;99848.13;5083490;28;20032;-84
2022/09/19 02:26:20;;;;;;;2.88;2.22;;;;;;;12.54;100.00;99837.44;5080203;28;20429;-85
2022/09/19 02:28:54;;;;;;;3.55;2.30;;;;;;;12.52;100.00;99828.91;5082641;28;20755;-83
2022/09/19 02:31:24;;;;;;;3.10;2.45;;;;;;;12.66;100.00;99845.66;5081533;28;20381;-84
2022/09/19 02:33:50;;;;;;;4.32;2.42;;;;;;;12.46;100.00;99834.94;5080542;28;20382;-85
2022/09/19 02:36:35;;;;;;;5.35;2.42;;;;;;;12.60;100.00;99846.41;5082021;28;20036;-84
2022/09/19 02:39:09;;;;;;;;;;;;;;;12.64;100.00;99856.41;5083123;28;20028;-85
2022/09/19 02:41:48;;;;;;;4.18;2.42;;;;;;;12.49;100.00;99834.56;5082384;28;19977;-84
2022/09/19 02:44:20;;;;;;;2.45;2.20;;;;;;;12.57;100.00;99844.97;5079083;28;20474;-84
2022/09/19 02:47:21;;;;;;;3.08;2.50;;;;;;;12.62;100.00;99847.03;5083297;28;20039;-85
2022/09/19 02:49:49;;;;;;;6.88;2.97;;;;;;;12.56;100.00;99844.16;5076164;28;20036;-84
2022/09/19 02:52:34;;;;;;;5.97;2.60;;;;;;;12.57;100.00;99845.78;5083591;28;20104;-84
2022/09/19 02:55:13;;;;;;;6.10;3.03;;;;;;;12.55;100.00;99833.81;5086349;28;20032;-83
2022/09/19 02:57:46;;;;;;;3.05;2.50;;;;;;;12.63;100.00;99843.41;5081431;28;20347;-84
2022/09/19 03:00:13;;;;;;;6.65;2.92;;;;;;;12.47;100.00;99826.84;5078873;28;20067;-83
2022/09/19 03:02:44;;;;;;;4.60;2.85;;;;;;;12.52;100.00;99831.56;5081125;28;20032;-84
2022/09/19 03:05:20;;;;;;;7.18;3.25;;;;;;;12.49;100.00;99832.75;5084871;28;20033;-84
2022/09/19 03:07:53;;;;;;;5.50;3.10;;;;;;;12.49;100.00;99834.56;5084476;28;20033;-85
2022/09/19 03:10:24;;;;;;;9.15;2.95;;;;;;;12.38;100.00;99841.97;5078172;28;20044;-85
2022/09/19 03:12:57;;;;;;;5.57;3.00;;;;;;;12.44;100.00;99837.75;5078805;28;20513;-84
2022/09/19 03:15:48;;;;;;;6.85;3.40;;;;;;;12.62;100.00;99842.59;5079457;28;20390;-84
2022/09/19 03:18:17;;;;;;;8.35;3.00;;;;;;;12.40;100.00;99832.06;5082366;28;20036;-84
2022/09/19 03:20:49;;;;;;;4.90;3.30;;;;;;;12.48;100.00;99832.94;5083828;28;20032;-85
2022/09/19 03:23:23;;;;;;;6.55;3.50;;;;;;;12.42;100.00;99819.53;5076049;28;20389;-85
2022/09/19 03:25:50;;;;;;;5.88;3.15;;;;;;;12.58;100.00;99841.34;5078846;28;20020;-85
2022/09/19 03:28:19;;;;;;;3.95;2.90;;;;;;;12.60;100.00;99835.88;5082474;28;20111;-84
2022/09/19 03:30:46;;;;;;;4.65;3.67;;;;;;;12.34;100.00;99798.56;5076302;28;20028;-85
2022/09/19 03:33:15;;;;;;;6.03;3.33;;;;;;;12.63;100.00;99836.34;5083873;28;20074;-85
2022/09/19 03:35:40;;;;;;;7.50;4.15;;;;;;;12.50;100.00;99830.94;5080697;28;20101;-84
2022/09/19 03:38:06;;;;;;;5.20;3.65;;;;;;;12.58;100.00;99833.47;5082710;28;20024;-85
2022/09/19 03:40:32;;;;;;;6.32;3.13;;;;;;;12.58;100.00;99838.72;5080201;28;20052;-85
2022/09/19 03:42:58;;;;;;;5.07;3.72;;;;;;;12.62;100.00;99845.25;5080329;28;20028;-84
2022/09/19 03:45:23;;;;;;;8.90;3.67;;;;;;;12.53;100.00;99831.38;5078163;28;20047;-84
2022/09/19 03:47:49;;;;;;;11.07;4.30;;;;;;;12.52;100.00;99827.13;5080381;28;20119;-84
2022/09/19 03:50:15;;;;;;;5.25;3.97;;;;;;;12.51;100.00;99833.38;5083335;28;20028;-85
2022/09/19 03:52:44;;;;;;;7.43;3.92;;;;;;;12.55;100.00;99826.72;5079267;28;20571;-84
2022/09/19 03:55:09;;;;;;;7.13;4.15;;;;;;;12.54;100.00;99833.00;5079412;28;20028;-84
2022/09/19 03:57:34;;;;;;;6.60;4.00;;;;;;;12.44;100.00;99827.22;5079773;28;20043;-85
2022/09/19 04:00:01;;;;;;;9.05;4.28;;;;;;;12.40;100.00;99831.22;5081662;28;20587;-84
2022/09/19 04:02:34;;;;;;;6.38;4.53;;;;;;;12.42;100.00;99830.06;5083911;28;20027;-83
2022/09/19 04:05:08;;;;;;;7.53;4.18;;;;;;;12.51;100.00;99822.03;5082239;28;20489;-84
2022/09/19 04:07:38;;;;;;;7.72;3.53;;;;;;;12.63;100.00;99831.06;5078731;28;20116;-83
2022/09/19 04:10:09;;;;;;;7.22;3.70;;;;;;;12.51;100.00;99827.28;5081474;28;20040;-84
2022/09/19 04:12:36;;;;;;;8.60;4.25;;;;;;;12.45;100.00;99806.97;5082956;28;20099;-83
2022/09/19 04:15:02;;;;;;;7.28;4.15;;;;;;;12.68;100.00;99839.22;5085742;28;20040;-84
2022/09/19 04:17:27;;;;;;;7.32;3.60;;;;;;;12.48;100.00;99817.13;5066681;28;20039;-84
2022/09/19 04:19:54;;;;;;;6.20;4.28;;;;;;;12.43;100.00;99822.97;5080926;28;20028;-86
2022/09/19 04:22:21;;;;;;;6.40;4.05;;;;;;;12.45;100.00;99841.22;5082057;28;20158;-85
2022/09/19 04:24:48;;;;;;;6.10;4.20;;;;;;;12.43;100.00;99841.38;5085216;28;20036;-85
2022/09/19 04:27:13;;;;;;;4.28;3.88;;;;;;;12.43;100.00;99830.84;5080551;28;20059;-85
2022/09/19 04:29:43;;;;;;;6.05;4.03;;;;;;;12.35;100.00;99816.00;5081253;28;20036;-84
2022/09/19 04:32:09;;;;;;;8.07;4.45;;;;;;;12.38;100.00;99823.53;5088647;28;20032;-84
2022/09/19 04:34:35;;;;;;;7.90;4.10;;;;;;;12.27;100.00;99821.38;5069050;28;20455;-85
2022/09/19 04:37:03;;;;;;;8.20;3.97;;;;;;;12.25;100.00;99826.03;5084358;28;20118;-83
2022/09/19 04:39:32;;;;;;;6.75;3.80;;;;;;;12.36;100.00;99841.31;5084144;28;20027;-84
2022/09/19 04:41:59;;;;;;;4.85;3.35;;;;;;;12.37;100.00;99815.81;5089835;28;20133;-83
2022/09/19 04:44:29;;;;;;;5.05;3.42;;;;;;;12.41;100.00;99838.13;5080970;28;20107;-84
2022/09/19 04:46:55;;;;;;;7.90;3.50;;;;;;;12.36;100.00;99835.25;5081557;28;20033;-83
2022/09/19 04:49:21;;;;;;;5.63;3.20;;;;;;;12.48;100.00;99838.19;5088504;28;20020;-85
2022/09/19 04:51:47;;;;;;;8.30;3.42;;;;;;;12.43;100.00;99831.69;5086601;28;20028;-83
2022/09/19 04:54:14;;;;;;;7.07;4.20;;;;;;;12.44;100.00;99832.47;5086664;28;20404;-85
2022/09/19 04:56:44;;;;;;;9.93;4.13;;;;;;;12.39;100.00;99848.03;5084647;28;20466;-84
2022/09/19 04:59:09;;;;;;;11.52;4.75;;;;;;;12.28;100.00;99844.06;5085376;28;20032;-84
2022/09/19 05:01:36;;;;;;;7.22;3.60;;;;;;;12.16;100.00;99848.19;5083808;28;20040;-86
2022/09/19 05:04:04;;;;;;;9.57;3.72;;;;;;;12.17;100.00;99844.53;5085898;28;20115;-84
2022/09/19 05:06:30;;;;;;;5.05;3.38;;;;;;;12.10;100.00;99837.41;5086999;28;20036;-84
2022/09/19 05:08:57;;;;;;;6.13;4.10;;;;;;;12.28;100.00;99834.38;5083349;28;20045;-84
2022/09/19 05:11:24;;;;;;;4.45;3.30;;;;;;;12.17;100.00;99826.94;5086399;28;20024;-84
2022/09/19 05:13:54;;;;;;;4.93;3.00;;;;;;;12.31;100.00;99837.63;5081904;28;20036;-84
2022/09/19 05:16:20;;;;;;;4.97;3.33;;;;;;;12.32;100.00;99826.91;5082943;28;20035;-84
2022/09/19 05:18:46;;;;;;;5.28;3.13;;;;;;;12.35;100.00;99834.41;5084334;28;20389;-84
2022/09/19 05:21:14;;;;;;;7.05;3.10;;;;;;;12.40;100.00;99832.06;5086153;28;20035;-84
2022/09/19 05:23:41;;;;;;;4.22;3.47;;;;;;;12.32;100.00;99821.63;5084755;28;20036;-84
2022/09/19 05:26:15;;;;;;;6.68;3.20;;;;;;;12.44;100.00;99843.03;5086555;28;20035;-84
2022/09/19 05:28:41;;;;;;;6.68;3.55;;;;;;;12.39;100.00;99838.34;5082796;28;20024;-85
2022/09/19 05:31:07;;;;;;;7.25;3.92;;;;;;;12.38;100.00;99838.50;5087490;28;20031;-86
2022/09/19 05:33:33;;;;;;;5.72;3.72;;;;;;;12.34;100.00;99832.78;5082468;28;20029;-85
2022/09/19 05:36:00;;;;;;;8.38;4.57;;;;;;;12.22;100.00;99832.47;5080353;28;20029;-84
2022/09/19 05:38:27;;;;;;;10.52;4.60;;;;;;;12.34;100.00;99851.22;5083830;28;20028;-84
2022/09/19 05:40:54;;;;;;;9.68;4.97;;;;;;;12.28;100.00;99852.81;5081525;28;20035;-86
2022/09/19 05:43:21;;;;;;;7.72;4.20;;;;;;;12.39;100.00;99853.31;5085927;28;20028;-85
2022/09/19 05:45:48;;;;;;;9.95;4.60;;;;;;;12.40;100.00;99858.41;5083635;28;20502;-84
2022/09/19 05:48:14;;;;;;;10.05;4.72;;;;;;;12.18;100.00;99843.53;5082557;28;20039;-84
2022/09/19 05:50:42;;;;;;;7.10;4.78;;;;;;;12.25;100.00;99854.97;5088765;28;20028;-84
2022/09/19 05:55:54;;;;;;;10.57;4.38;;;;;;;12.09;100.00;99846.28;5083875;28;20398;-84
2022/09/19 05:58:20;;;;;;;7.75;4.28;;;;;;;12.19;100.00;99847.84;5084063;28;20107;-85
2022/09/19 06:00:46;;;;;;;8.25;4.40;;;;;;;12.36;100.00;99857.09;5083278;28;20054;-84
2022/09/19 06:03:16;;;;;;;6.25;4.00;;;;;;;12.32;100.00;99861.13;5080693;28;20110;-82
2022/09/19 06:05:44;;;;;;;9.07;4.47;;;;;;;12.47;100.00;99861.06;5083948;28;20074;-82
2022/09/19 06:08:13;;;;;;;9.45;4.68;;;;;;;12.48;100.00;99854.00;5080960;28;20036;-85
2022/09/19 06:10:41;;;;;;;6.97;4.55;;;;;;;12.52;100.00;99855.25;5079602;28;20402;-83
2022/09/19 06:13:11;;;;;;;7.63;4.57;;;;;;;12.60;100.00;99867.50;5085677;28;20029;-85
2022/09/19 06:15:38;;;;;;;9.07;5.05;;;;;;;12.62;100.00;99871.56;5081616;28;20039;-84
2022/09/19 06:18:04;;;;;;;9.27;4.88;;;;;;;12.74;100.00;99873.69;5083411;28;20033;-84
2022/09/19 06:20:29;;;;;;;7.22;4.57;;;;;;;12.76;100.00;99861.16;5083315;28;20099;-85
2022/09/19 06:23:01;;;;;;;11.73;5.03;;;;;;;12.93;100.00;99874.91;5079902;28;20491;-85
2022/09/19 06:25:31;;;;;;;5.32;3.83;;;;;;;12.83;100.00;99856.78;5082187;28;20064;-85
2022/09/19 06:27:59;;;;;;;9.00;4.25;;;;;;;13.00;100.00;99887.13;5083041;28;20035;-84
2022/09/19 06:30:26;;;;;;;7.68;4.13;;;;;;;12.99;100.00;99877.59;5084092;28;20046;-85
2022/09/19 06:32:52;;;;;;;4.88;3.80;;;;;;;13.06;100.00;99884.75;5084041;28;20447;-84
2022/09/19 06:35:23;;;;;;;8.02;3.88;;;;;;;13.11;100.00;99884.97;5100159;28;20509;-85
2022/09/19 06:37:49;;;;;;;5.30;4.22;;;;;;;13.09;100.00;99868.53;5082019;28;20040;-84
2022/09/19 06:40:22;;;;;;;6.82;4.07;;;;;;;13.10;100.00;99878.06;5081737;28;20378;-85
2022/09/19 06:42:48;;;;;;;8.88;4.30;;;;;;;13.20;100.00;99883.03;5082982;28;20395;-84
2022/09/19 06:45:14;;;;;;;5.68;3.95;;;;;;;13.22;100.00;99887.09;5085577;28;20092;-85
2022/09/19 06:47:39;;;;;;;7.53;4.28;;;;;;;13.23;100.00;99887.91;5082003;28;20478;-84
2022/09/19 06:50:05;;;;;;;7.85;4.50;;;;;;;13.21;100.00;99874.94;5077188;28;20032;-85
2022/09/19 06:52:31;;;;;;;9.35;4.30;;;;;;;13.34;100.00;99876.84;5081364;28;20024;-84
2022/09/19 06:54:58;;;;;;;6.93;3.88;;;;;;;13.31;100.00;99871.97;5081070;28;20040;-85
2022/09/19 06:57:24;;;;;;;6.07;4.07;;;;;;;13.38;100.00;99874.66;5080501;28;20035;-86
2022/09/19 06:59:49;;;;;;;5.00;3.22;;;;;;;13.48;100.00;99887.53;5081719;28;20028;-85
2022/09/19 07:02:15;;;;;;;6.90;4.03;;;;;;;13.53;100.00;99890.41;5081693;28;20441;-85
2022/09/19 07:04:41;;;;;;;7.78;4.10;;;;;;;13.48;100.00;99875.13;5082800;28;20046;-84
2022/09/19 07:07:06;;;;;;;6.43;3.85;;;;;;;13.48;100.00;99884.91;5084003;28;20039;-85
2022/09/19 07:09:32;;;;;;;8.25;4.25;;;;;;;13.42;100.00;99894.34;5081181;28;20101;-84
2022/09/19 07:11:57;;;;;;;5.18;3.80;;;;;;;13.39;100.00;99913.19;5082402;28;20390;-84
2022/09/19 07:14:24;;;;;;;5.80;3.67;;;;;;;13.36;100.00;99918.81;5081657;28;20040;-83
2022/09/19 07:16:49;;;;;;;7.63;3.95;;;;;;;13.26;100.00;99901.53;5079159;28;20142;-85
2022/09/19 07:19:15;;;;;;;7.47;4.05;;;;;;;13.35;100.00;99915.41;5082794;28;20115;-87
2022/09/19 07:21:41;;;;;;;7.00;4.13;;;;;;;13.36;100.00;99903.84;5081947;28;20032;-85
2022/09/19 07:24:07;;;;;;;7.28;4.00;;;;;;;13.44;100.00;99916.09;5079422;28;20033;-86
2022/09/19 07:26:33;;;;;;;6.05;3.67;;;;;;;13.44;100.00;99900.28;5082781;28;20051;-88
2022/09/19 07:28:59;;;;;;;4.40;3.88;;;;;;;13.55;100.00;99904.22;5074028;28;20040;-87
2022/09/19 07:31:28;;;;;;;6.43;4.13;;;;;;;13.51;100.00;99903.75;5072690;28;20028;-86
2022/09/19 07:33:54;;;;;;;5.13;4.00;;;;;;;13.46;100.00;99903.53;5073856;28;20478;-85
2022/09/19 07:36:23;;;;;;;7.40;4.30;;;;;;;13.56;100.00;99908.47;5090048;28;20078;-82
2022/09/19 07:38:49;;;;;;;7.75;5.03;;;;;;;13.65;100.00;99924.97;5084484;28;20085;-83
2022/09/19 07:41:16;;;;;;;7.22;5.00;;;;;;;13.46;100.00;99923.81;5082217;28;20033;-84
2022/09/19 07:43:43;;;;;;;7.85;4.13;;;;;;;13.37;100.00;99909.94;5065220;28;20060;-82
2022/09/19 07:46:08;;;;;;;10.93;5.00;;;;;;;13.50;100.00;99927.72;5079722;28;20111;-80
2022/09/19 07:48:34;;;;;;;9.43;5.03;;;;;;;13.48;100.00;99917.34;5079249;28;20446;-80
2022/09/19 07:51:02;;;;;;;8.65;4.38;;;;;;;13.64;100.00;99925.97;5085606;28;20024;-81
2022/09/19 07:53:28;;;;;;;8.48;4.90;;;;;;;13.84;100.00;99912.91;5083274;28;20471;-81
2022/09/19 07:55:56;;;;;;;6.15;4.68;;;;;;;13.93;100.00;99919.66;5082366;28;20111;-82
2022/09/19 07:58:26;;;;;;;9.65;4.47;;;;;;;14.06;100.00;99921.56;5080703;28;20398;-82
2022/09/19 08:00:53;;;;;;;5.38;4.38;;;;;;;13.87;100.00;99915.16;5077282;28;20021;-81
2022/09/19 08:03:20;;;;;;;5.28;4.25;;;;;;;13.80;100.00;99919.56;5084321;28;20024;-81
2022/09/19 08:05:47;;;;;;;7.75;4.28;;;;;;;14.02;100.00;99936.16;5081552;28;20036;-82
2022/09/19 08:08:15;;;;;;;7.68;4.47;;;;;;;14.08;100.00;99924.81;5079344;28;20060;-81
2022/09/19 08:10:43;;;;;;;6.65;4.38;;;;;;;14.22;100.00;99938.06;5081193;28;20049;-78
2022/09/19 08:13:11;;;;;;;8.23;4.80;;;;;;;14.35;100.00;99945.25;5080415;28;20032;-78
2022/09/19 08:15:37;;;;;;;11.95;4.72;;;;;;;14.30;100.00;99924.69;5082104;28;20051;-79
2022/09/19 08:18:03;;;;;;;7.22;4.65;;;;;;;14.40;100.00;99941.00;5080869;28;20115;-80
2022/09/19 08:20:31;;;;;;;5.88;4.50;;;;;;;14.55;100.00;99945.31;5077157;28;20113;-79
2022/09/19 08:23:02;;;;;;;14.60;4.72;;;;;;;14.45;100.00;99929.84;5076714;28;20048;-80
2022/09/19 08:25:32;;;;;;;8.25;4.90;;;;;;;14.68;100.00;99931.34;5080435;28;20057;-78
2022/09/19 08:27:57;;;;;;;6.68;4.20;;;;;;;14.75;100.00;99931.38;5078416;28;20025;-79
2022/09/19 08:30:24;;;;;;;8.95;5.03;;;;;;;14.83;100.00;99944.41;5082173;28;20039;-80
2022/09/19 08:32:51;;;;;;;7.72;4.72;;;;;;;14.84;100.00;99948.69;5078526;28;20032;-79
2022/09/19 08:35:18;;;;;;;7.85;4.90;;;;;;;14.90;100.00;99945.22;5079773;28;20398;-80
2022/09/19 08:37:45;;;;;;;7.30;4.90;;;;;;;15.03;100.00;99955.00;5076995;28;20056;-79
2022/09/19 08:40:21;;;;;;;7.63;4.20;;;;;;;15.18;100.00;99946.91;5075051;28;20020;-80
2022/09/19 08:43:10;;;;;;;6.20;4.18;;;;;;;15.14;100.00;99956.25;5082331;28;20039;-81
2022/09/19 08:45:56;;;;;;;7.18;4.15;;;;;;;15.13;100.00;99946.69;5071035;28;20395;-81
2022/09/19 08:48:38;;;;;;;6.43;4.03;;;;;;;15.08;100.00;99949.94;5082062;28;20066;-80
2022/09/19 08:51:17;;;;;;;6.38;4.38;;;;;;;15.04;100.00;99947.91;5059843;28;20078;-80
2022/09/19 08:53:48;;;;;;;6.22;5.45;;;;;;;15.22;100.00;99953.41;5085358;28;20055;-81
2022/09/19 08:56:16;;;;;;;7.05;5.68;;;;;;;15.43;100.00;99956.88;5078637;28;20032;-81
2022/09/19 08:58:49;;;;;;;7.60;4.70;;;;;;;15.52;100.00;99955.63;5076928;28;20112;-80
2022/09/19 09:01:17;;;;;;;7.50;4.77;;;;;;;15.62;100.00;99963.16;5078988;28;20028;-81
2022/09/19 09:04:07;;;;;;;6.32;3.97;;;;;;;15.74;100.00;99966.03;5086458;28;20032;-77
2022/09/19 09:06:54;;;;;;;5.13;3.97;;;;;;;15.77;100.00;99965.59;5077374;28;20367;-79
2022/09/19 09:09:31;;;;;;;5.68;4.07;;;;;;;15.74;100.00;99962.56;5078493;28;20068;-82
2022/09/19 09:12:12;;;;;;;4.90;4.25;;;;;;;15.73;100.00;99948.53;5081762;28;20043;-84
2022/09/19 09:15:13;;;;;;;7.60;4.07;;;;;;;15.89;100.00;99970.28;5084319;28;20028;-83
2022/09/19 09:17:58;;;;;;;6.53;4.10;;;;;;;15.84;100.00;99970.91;5080464;28;20035;-83
2022/09/19 09:20:49;;;;;;;7.45;4.72;;;;;;;15.81;100.00;99969.47;5084789;28;20078;-83
2022/09/19 09:23:20;;;;;;;6.10;4.47;;;;;;;15.71;100.00;99974.34;5084586;28;20028;-82
2022/09/19 09:25:48;;;;;;;5.63;4.65;;;;;;;15.87;100.00;99964.34;5084532;28;20024;-83
2022/09/19 09:28:41;;;;;;;7.15;4.70;;;;;;;15.98;100.00;99971.72;5087063;28;20470;-82
2022/09/19 09:31:13;;;;;;;;;;;;;;;16.25;100.00;99969.81;5083899;28;20028;-83
2022/09/19 09:33:51;;;;;;;7.80;4.75;;;;;;;16.35;100.00;99963.25;5081013;28;19966;-83
2022/09/19 09:36:23;;;;;;;6.85;4.47;;;;;;;16.44;100.00;99963.81;5083180;28;20036;-83
2022/09/19 09:38:52;;;;;;;5.85;4.85;;;;;;;16.68;100.00;99970.25;5082295;28;20028;-84
2022/09/19 09:41:47;;;;;;;7.45;4.82;;;;;;;16.83;100.00;99973.44;5081822;28;20402;-83
2022/09/19 09:44:13;;;;;;;9.43;4.35;;;;;;;16.83;100.00;99977.91;5084778;28;20036;-83
2022/09/19 09:47:01;;;;;;;7.15;5.05;;;;;;;16.70;100.00;99976.13;5082337;28;20436;-83
2022/09/19 09:49:30;;;;;;;8.50;4.97;;;;;;;16.72;100.00;99975.94;5079792;28;20119;-83
2022/09/19 09:52:13;;;;;;;7.90;4.72;;;;;;;16.63;100.00;99983.31;5081823;28;20028;-84
2022/09/19 09:58:00;;;;;;;6.85;5.20;;;;;;;16.42;100.00;99980.75;5084530;28;20130;-85
2022/09/19 10:03:35;;;;;;;7.65;5.38;;;;;;;16.52;100.00;99976.84;5084599;28;20036;-87
2022/09/19 10:06:12;;;;;;;10.02;5.10;;;;;;;16.24;100.00;99941.69;5084744;28;20118;-82
2022/09/19 10:08:54;;;;;;;6.97;4.80;;;;;;;16.29;100.00;99978.13;5078419;28;20032;-84
2022/09/19 10:11:31;;;;;;;6.78;5.50;;;;;;;16.15;100.00;99960.69;5082782;28;20036;-84
2022/09/19 10:14:04;;;;;;;9.88;6.07;;;;;;;16.16;100.00;99967.59;5083204;28;20434;-83
2022/09/19 10:16:32;;;;;;;9.05;6.20;;;;;;;16.01;100.00;99966.00;5080807;28;20036;-83
2022/09/19 10:19:16;;;;;;;10.45;6.80;;;;;;;15.92;100.00;99978.63;5081340;28;20029;-83
2022/09/19 10:21:42;;;;;;;9.88;5.70;;;;;;;15.84;100.00;99971.69;5084864;28;20031;-83
2022/09/19 10:24:42;;;;;;;10.95;7.70;;;;;;;15.70;100.00;99976.19;5082767;28;20059;-82
2022/09/19 10:27:49;;;;;;;9.38;6.97;;;;;;;15.48;100.00;99972.16;5065515;28;20036;-82
2022/09/19 10:30:24;;;;;;;7.93;6.00;;;;;;;15.56;100.00;99979.88;5066464;28;20071;-82
2022/09/19 10:32:51;;;;;;;6.97;5.95;;;;;;;15.35;100.00;99965.03;5088116;28;20028;-81
2022/09/19 10:35:34;;;;;;;9.40;6.85;;;;;;;15.36;100.00;99974.59;5088464;28;20052;-81
2022/09/19 10:38:17;;;;;;;8.90;6.90;;;;;;;15.56;100.00;99977.22;5081406;28;20096;-82
2022/09/19 10:41:02;;;;;;;9.73;6.03;;;;;;;15.48;100.00;99970.31;5085065;28;20051;-83
2022/09/19 10:43:49;;;;;;;6.20;5.60;;;;;;;15.30;100.00;99976.22;5087535;28;20039;-81
2022/09/19 10:46:21;;;;;;;8.30;5.55;;;;;;;15.28;100.00;99960.53;5082873;28;20029;-82
2022/09/19 10:48:56;;;;;;;7.78;6.30;;;;;;;15.36;100.00;99974.59;5080972;28;20040;-83
2022/09/19 10:51:32;;;;;;;9.35;6.95;;;;;;;15.35;100.00;99984.34;5086260;28;20418;-83
2022/09/19 10:54:11;;;;;;;7.68;6.00;;;;;;;15.34;100.00;99966.03;5084857;28;20039;-83
2022/09/19 10:56:40;;;;;;;10.27;6.90;;;;;;;15.38;100.00;99973.34;5082760;28;20039;-83
2022/09/19 10:59:14;;;;;;;8.35;6.45;;;;;;;15.44;100.00;99982.31;5081940;28;20055;-84
2022/09/19 11:02:11;;;;;;;9.13;6.88;;;;;;;15.32;100.00;99957.47;5066306;28;20120;-80
2022/09/19 11:04:38;;;;;;;12.27;7.57;;;;;;;15.45;100.00;99973.34;5083472;28;20028;-83
2022/09/19 11:07:17;;;;;;;8.45;6.82;;;;;;;15.47;100.00;99986.41;5081761;28;20107;-83
2022/09/19 11:09:45;;;;;;;12.40;6.72;;;;;;;15.35;100.00;99975.59;5078315;28;20090;-82
2022/09/19 11:12:16;;;;;;;9.95;6.65;;;;;;;15.51;100.00;99983.13;5084345;28;20028;-85
2022/09/19 11:14:44;;;;;;;12.18;6.47;;;;;;;15.56;100.00;99966.63;5087631;28;20517;-86
2022/09/19 11:17:20;;;;;;;7.72;6.30;;;;;;;15.41;100.00;99972.94;5082442;28;20429;-85
2022/09/19 11:20:16;;;;;;;6.82;5.65;;;;;;;15.62;100.00;99983.53;5081046;28;20020;-84
2022/09/19 11:23:13;;;;;;;6.63;5.47;;;;;;;15.67;100.00;99983.72;5078786;28;20378;-83
2022/09/19 11:25:58;;;;;;;8.52;6.18;;;;;;;15.83;100.00;99980.66;5080669;28;20057;-84
2022/09/19 11:28:49;;;;;;;6.53;5.07;;;;;;;16.09;100.00;99979.00;5082269;28;20062;-82
2022/09/19 11:31:44;;;;;;;8.18;5.97;;;;;;;15.97;100.00;99986.78;5065074;28;20045;-83
2022/09/19 11:34:31;;;;;;;10.70;6.28;;;;;;;16.15;100.00;99981.88;5079346;28;20036;-86
2022/09/19 11:36:59;;;;;;;12.38;6.25;;;;;;;16.32;100.00;99983.03;5078256;28;20158;-82
2022/09/19 11:39:40;;;;;;;10.02;6.55;;;;;;;16.61;100.00;99983.53;5081568;28;20482;-85
2022/09/19 11:42:46;;;;;;;11.63;6.05;;;;;;;16.51;100.00;99976.03;5079725;28;20094;-82
2022/09/19 11:45:16;;;;;;;12.93;6.13;;;;;;;16.77;100.00;99984.06;5080573;28;20032;-82
2022/09/19 11:48:19;;;;;;;9.32;5.70;;;;;;;16.83;100.00;99988.50;5080959;28;20036;-83
2022/09/19 11:51:00;;;;;;;8.02;5.18;;;;;;;16.87;100.00;99995.00;5079596;28;20082;-84
2022/09/19 11:53:48;;;;;;;7.80;5.43;;;;;;;16.99;100.00;99979.25;5081830;28;20067;-83
2022/09/19 11:56:36;;;;;;;10.60;5.40;;;;;;;16.83;100.00;99988.50;5083749;28;20111;-83
2022/09/19 11:59:27;;;;;;;14.02;7.82;;;;;;;16.52;100.00;99982.16;5079359;28;20390;-82
2022/09/19 12:02:06;;;;;;;8.02;6.55;;;;;;;16.29;100.00;99994.03;5083945;28;20029;-84